CheckWX is a tool to help pilots better visualize weather data.  It is not intended as a substitute for an official pre-flight weather briefing.

13:41:59 UTC

KELK METAR
Elk City Regional Business Airport
Elk City, Oklahoma, USA
Current

27 mins ago

KELK 201315Z AUTO 18011G16KT 10SM CLR 25/19 A2989 RMK AO2 T02520192
Observed
Jul-20 @ 13:15 UTC
Wind
  • 180° at 11 KTS
  • Gusting to 16 KTS
Visibility
10 SM
Flight Rules
VFR
Cloud Levels
  • Clear skies
Temperature
25°C / 77°F
Dewpoint
19°C / 66°F
Humidity
69%
Altimeter
29.89" Hg
Pressure
1012.22 hPa
Previous

47 mins ago

KELK 201255Z AUTO 18010KT 10SM CLR 24/19 A2989 RMK AO2 T02440191
Observed
Jul-20 @ 12:55 UTC
Wind
  • 180° at 10 KTS
Visibility
10 SM
Flight Rules
VFR
Cloud Levels
  • Clear skies
Temperature
24°C / 75°F
Dewpoint
19°C / 66°F
Humidity
74%
Altimeter
29.89" Hg
Pressure
1012.22 hPa
Previous

1 hour ago

KELK 201235Z AUTO 18009KT 10SM CLR 24/19 A2989 RMK AO2 T02400189
Observed
Jul-20 @ 12:35 UTC
Wind
  • 180° at 9 KTS
Visibility
10 SM
Flight Rules
VFR
Cloud Levels
  • Clear skies
Temperature
24°C / 75°F
Dewpoint
19°C / 66°F
Humidity
74%
Altimeter
29.89" Hg
Pressure
1012.22 hPa